Time;durP1;ratioP1;P1;durP2;ratioP2;P2;SDS_P1;SDS_P2;PMS_P1;PMS_P2;Temp;Humidity;BMP_temperature;BMP_pressure;BME280_temperature;BME280_humidity;BME280_pressure;Samples;Min_cycle;Max_cycle;Signal;HPM_P1;HPM_P2
2021/08/19 00:01:22;;;;;;;13.00;10.80;;;17.70;99.90;;;;;;5109870;28;20188;-37
2021/08/19 00:03:47;;;;;;;13.63;9.37;;;17.60;99.90;;;;;;5096968;28;20184;-38
2021/08/19 00:06:14;;;;;;;11.90;10.33;;;17.60;99.90;;;;;;5116593;27;20680;-38
2021/08/19 00:08:41;;;;;;;13.40;10.93;;;17.60;99.90;;;;;;5107444;28;20827;-38
2021/08/19 00:11:08;;;;;;;12.40;10.83;;;17.60;99.90;;;;;;5109406;28;20421;-38
2021/08/19 00:13:34;;;;;;;13.33;11.93;;;17.60;99.90;;;;;;5109096;28;20418;-40
2021/08/19 00:15:59;;;;;;;13.63;12.23;;;17.60;99.90;;;;;;5109814;28;20512;-38
2021/08/19 00:18:25;;;;;;;12.80;11.00;;;17.60;99.90;;;;;;5103696;28;20262;-41
2021/08/19 00:20:51;;;;;;;13.37;11.43;;;17.70;99.90;;;;;;5099931;28;20764;-37
2021/08/19 00:23:17;;;;;;;16.00;13.23;;;17.60;99.90;;;;;;5108888;28;20592;-37
2021/08/19 00:25:42;;;;;;;15.73;12.80;;;17.60;99.90;;;;;;5109091;28;20180;-37
2021/08/19 00:28:08;;;;;;;18.03;14.03;;;17.60;99.90;;;;;;5108842;28;20215;-38
2021/08/19 00:30:34;;;;;;;13.13;11.73;;;17.60;99.90;;;;;;5108310;28;20782;-38
2021/08/19 00:32:59;;;;;;;17.37;13.23;;;17.60;99.90;;;;;;5104208;28;20184;-38
2021/08/19 00:35:25;;;;;;;17.43;13.60;;;17.60;99.90;;;;;;5100695;28;20183;-38
2021/08/19 00:37:51;;;;;;;16.53;13.00;;;17.60;99.90;;;;;;5108757;28;20184;-38
2021/08/19 00:40:16;;;;;;;16.73;13.83;;;17.60;99.90;;;;;;5108048;28;20195;-38
2021/08/19 00:42:42;;;;;;;15.03;11.97;;;17.60;99.90;;;;;;5090750;28;20195;-38
2021/08/19 00:45:08;;;;;;;18.00;13.13;;;17.60;99.90;;;;;;5108965;28;20184;-38
2021/08/19 00:47:38;;;;;;;22.00;14.20;;;17.60;99.90;;;;;;5108614;28;20421;-39
2021/08/19 00:50:05;;;;;;;16.30;12.90;;;17.60;99.90;;;;;;5096525;28;20457;-39
2021/08/19 00:52:32;;;;;;;19.10;14.10;;;17.70;99.90;;;;;;5108346;28;20409;-38
2021/08/19 00:54:59;;;;;;;16.50;13.10;;;17.60;99.90;;;;;;5108351;28;20421;-38
2021/08/19 00:57:25;;;;;;;14.93;12.87;;;17.60;99.90;;;;;;5108461;28;20931;-37
2021/08/19 00:59:52;;;;;;;17.20;14.07;;;17.70;99.90;;;;;;5107540;28;20465;-39
2021/08/19 01:02:20;;;;;;;15.00;12.77;;;17.70;99.90;;;;;;5107942;28;20463;-38
2021/08/19 01:04:46;;;;;;;17.90;13.67;;;17.60;99.90;;;;;;5099869;28;20433;-37
2021/08/19 01:07:14;;;;;;;19.97;15.73;;;17.60;99.90;;;;;;5108027;28;20428;-38
2021/08/19 01:09:41;;;;;;;17.03;14.10;;;17.60;99.90;;;;;;5106499;28;20958;-38
2021/08/19 01:12:10;;;;;;;18.60;13.97;;;17.60;99.90;;;;;;5088695;28;20491;-39
2021/08/19 01:14:35;;;;;;;18.37;14.13;;;17.60;99.90;;;;;;5108162;28;20916;-38
2021/08/19 01:17:15;;;;;;;15.03;13.40;;;17.60;99.90;;;;;;5089293;28;20405;-38
2021/08/19 01:19:44;;;;;;;14.97;13.47;;;17.70;99.90;;;;;;5096293;28;20282;-38
2021/08/19 01:22:10;;;;;;;17.30;15.03;;;17.60;99.90;;;;;;5107837;28;20429;-38
2021/08/19 01:24:35;;;;;;;15.40;13.60;;;17.60;99.90;;;;;;5102818;28;20410;-37
2021/08/19 01:27:02;;;;;;;17.00;14.67;;;17.60;99.90;;;;;;5107613;28;20289;-37
2021/08/19 01:29:28;;;;;;;19.60;15.77;;;17.60;99.90;;;;;;5106717;28;20214;-37
2021/08/19 01:32:08;;;;;;;18.03;14.80;;;17.60;99.90;;;;;;5107660;28;20494;-37
2021/08/19 01:34:35;;;;;;;19.03;16.30;;;17.60;99.90;;;;;;5097864;28;20426;-39
2021/08/19 01:37:01;;;;;;;16.60;14.30;;;17.70;99.90;;;;;;5107449;28;20409;-40
2021/08/19 01:39:27;;;;;;;17.00;14.77;;;17.70;99.90;;;;;;5106867;28;20418;-37
2021/08/19 01:41:53;;;;;;;17.37;15.33;;;17.60;99.90;;;;;;5110335;27;20206;-37
2021/08/19 01:44:19;;;;;;;20.13;14.37;;;17.60;99.90;;;;;;5127894;27;20468;-40
2021/08/19 03:51:43;;;;;;;14.53;11.90;;;17.40;99.90;;;;;;5130485;27;20440;-37
2021/08/19 03:54:09;;;;;;;13.43;12.13;;;17.40;99.90;;;;;;5119635;27;20762;-38
2021/08/19 03:56:39;;;;;;;14.07;12.67;;;17.40;99.90;;;;;;5130584;27;20214;-39
2021/08/19 03:59:05;;;;;;;12.97;11.57;;;17.40;99.90;;;;;;5129492;27;20182;-38
2021/08/19 04:01:31;;;;;;;15.13;13.63;;;17.40;99.90;;;;;;5111507;27;20523;-43
2021/08/19 04:03:57;;;;;;;13.93;12.50;;;17.40;99.90;;;;;;5111801;27;21033;-38
2021/08/19 04:06:22;;;;;;;14.13;12.83;;;17.40;99.90;;;;;;5130089;27;20412;-38
2021/08/19 04:08:48;;;;;;;14.60;13.10;;;17.40;99.90;;;;;;5117656;27;20219;-39
2021/08/19 04:11:14;;;;;;;11.60;10.50;;;17.40;99.90;;;;;;5125692;27;20269;-38
2021/08/19 04:13:39;;;;;;;11.90;10.50;;;17.40;99.90;;;;;;5129745;27;20215;-38
2021/08/19 04:16:08;;;;;;;9.77;8.53;;;17.40;99.90;;;;;;5129656;27;20190;-37
2021/08/19 04:18:34;;;;;;;10.37;9.27;;;17.40;99.90;;;;;;5129835;27;20604;-38
2021/08/19 04:21:01;;;;;;;11.00;8.80;;;17.40;99.90;;;;;;5129171;27;20451;-39
2021/08/19 04:23:26;;;;;;;11.83;10.63;;;17.40;99.90;;;;;;5124094;27;20624;-38
2021/08/19 04:25:52;;;;;;;12.07;10.70;;;17.30;99.90;;;;;;5122163;27;20432;-38
2021/08/19 04:28:17;;;;;;;12.20;11.00;;;17.30;99.90;;;;;;5129645;27;20218;-38
2021/08/19 04:30:43;;;;;;;11.80;10.60;;;17.30;99.90;;;;;;5128707;27;20210;-43
2021/08/19 04:33:09;;;;;;;14.17;11.83;;;17.30;99.90;;;;;;5129924;27;20274;-38
2021/08/19 04:35:35;;;;;;;15.93;14.23;;;17.20;99.90;;;;;;5111008;27;20278;-39
2021/08/19 04:38:00;;;;;;;18.07;14.60;;;17.20;99.90;;;;;;5125742;27;20727;-38
2021/08/19 04:40:26;;;;;;;17.17;14.40;;;17.20;99.90;;;;;;5123239;27;20203;-37
2021/08/19 04:42:52;;;;;;;18.40;13.83;;;17.20;99.90;;;;;;5129363;27;20218;-37
2021/08/19 04:45:17;;;;;;;19.87;16.50;;;17.20;99.90;;;;;;5129020;27;20454;-38
2021/08/19 04:47:43;;;;;;;18.73;15.57;;;17.30;99.90;;;;;;5129560;27;20224;-37
2021/08/19 04:50:09;;;;;;;21.60;16.87;;;17.20;99.90;;;;;;5128597;27;20304;-39
2021/08/19 04:52:35;;;;;;;18.87;16.87;;;17.30;99.90;;;;;;5109450;27;20191;-39
2021/08/19 04:55:02;;;;;;;20.50;16.63;;;17.30;99.90;;;;;;5116875;27;21158;-38
2021/08/19 04:57:27;;;;;;;21.20;16.93;;;17.30;99.90;;;;;;5124007;27;20551;-39
2021/08/19 04:59:53;;;;;;;22.33;17.53;;;17.30;99.90;;;;;;5107574;28;20422;-41
2021/08/19 05:02:19;;;;;;;22.90;18.60;;;17.30;99.90;;;;;;5099909;27;20198;-38
2021/08/19 05:04:44;;;;;;;20.80;17.20;;;17.30;99.90;;;;;;5129195;27;20202;-39
2021/08/19 05:07:10;;;;;;;22.80;18.23;;;17.30;99.90;;;;;;5129014;27;20191;-40
2021/08/19 05:09:36;;;;;;;28.23;18.83;;;17.30;99.90;;;;;;5117376;27;20243;-39
2021/08/19 05:12:02;;;;;;;23.30;17.00;;;17.30;99.90;;;;;;5102787;27;20180;-38
2021/08/19 05:14:27;;;;;;;22.07;18.73;;;17.30;99.90;;;;;;5128681;27;20667;-38
2021/08/19 05:16:53;;;;;;;25.40;18.67;;;17.30;99.90;;;;;;5110076;27;20503;-39
2021/08/19 05:19:18;;;;;;;22.20;17.07;;;17.30;99.90;;;;;;5128236;27;20288;-40
2021/08/19 05:21:44;;;;;;;22.63;16.20;;;17.30;99.90;;;;;;5128715;27;20684;-38
2021/08/19 05:24:10;;;;;;;19.73;16.03;;;17.20;99.90;;;;;;5121406;27;20279;-38
2021/08/19 05:26:37;;;;;;;20.00;16.50;;;17.30;99.90;;;;;;5109126;27;20178;-38
2021/08/19 05:29:03;;;;;;;19.33;17.07;;;17.30;99.90;;;;;;5127935;27;20263;-39
2021/08/19 05:31:28;;;;;;;21.00;16.60;;;17.30;99.90;;;;;;5111895;27;20786;-39
2021/08/19 05:33:55;;;;;;;20.77;15.80;;;17.20;99.90;;;;;;5128856;27;20182;-38
2021/08/19 05:36:21;;;;;;;20.63;15.87;;;17.20;99.90;;;;;;5110112;27;20181;-39
2021/08/19 05:38:47;;;;;;;21.53;15.80;;;17.20;99.90;;;;;;5121412;27;20428;-38
2021/08/19 05:41:13;;;;;;;19.00;15.07;;;17.20;99.90;;;;;;5124156;27;20423;-38
2021/08/19 05:43:38;;;;;;;20.17;16.37;;;17.20;99.90;;;;;;5127848;27;20458;-39
2021/08/19 05:46:07;;;;;;;20.43;15.50;;;17.20;99.90;;;;;;5128159;27;20198;-37
2021/08/19 05:48:32;;;;;;;19.40;15.57;;;17.20;99.90;;;;;;5126721;27;20199;-39
2021/08/19 05:50:58;;;;;;;19.77;16.17;;;17.10;99.90;;;;;;5127074;27;20497;-39
2021/08/19 05:53:24;;;;;;;21.37;15.60;;;17.20;99.90;;;;;;5124164;27;20248;-38
2021/08/19 05:55:49;;;;;;;18.97;14.90;;;17.20;99.90;;;;;;5124848;27;20183;-38
2021/08/19 05:58:15;;;;;;;26.13;17.33;;;17.20;99.90;;;;;;5125952;27;20328;-38
2021/08/19 06:00:49;;;;;;;24.00;17.90;;;17.20;99.90;;;;;;5120359;27;20191;-41
2021/08/19 06:03:15;;;;;;;25.77;18.50;;;17.20;99.90;;;;;;5122194;27;20198;-38
2021/08/19 06:05:41;;;;;;;24.50;18.00;;;17.10;99.90;;;;;;5127643;27;20425;-38
2021/08/19 06:08:07;;;;;;;26.03;18.60;;;17.10;99.90;;;;;;5127228;27;20981;-39
2021/08/19 06:10:32;;;;;;;23.93;17.90;;;17.10;99.90;;;;;;5112674;27;20302;-39
2021/08/19 06:12:58;;;;;;;24.27;19.33;;;17.10;99.90;;;;;;5126812;27;20194;-39
2021/08/19 06:15:24;;;;;;;25.10;18.20;;;17.10;99.90;;;;;;5127834;27;20221;-38
2021/08/19 06:17:49;;;;;;;20.80;17.20;;;17.10;99.90;;;;;;5127692;27;20190;-38
2021/08/19 06:20:15;;;;;;;21.43;17.93;;;17.10;99.90;;;;;;5126643;27;20263;-38
2021/08/19 06:22:41;;;;;;;25.27;16.77;;;17.10;99.90;;;;;;5126369;27;20251;-38
2021/08/19 06:25:07;;;;;;;23.23;17.53;;;17.10;99.90;;;;;;5120060;27;20187;-38
2021/08/19 06:27:33;;;;;;;20.73;16.97;;;17.20;99.90;;;;;;5127093;27;20190;-38
2021/08/19 06:29:59;;;;;;;18.90;16.67;;;17.20;99.90;;;;;;5107723;27;20559;-40
2021/08/19 06:32:24;;;;;;;16.30;14.60;;;17.10;99.90;;;;;;5106407;27;20546;-38
2021/08/19 06:34:50;;;;;;;20.40;15.80;;;17.20;99.90;;;;;;5124856;27;20186;-38
2021/08/19 06:37:15;;;;;;;17.63;15.67;;;17.10;99.90;;;;;;5107254;27;20673;-38
2021/08/19 06:39:41;;;;;;;18.90;16.17;;;17.10;99.90;;;;;;5118474;27;20187;-39
2021/08/19 06:42:07;;;;;;;18.30;14.67;;;17.20;99.90;;;;;;5121682;27;20888;-39
2021/08/19 06:44:33;;;;;;;20.83;15.40;;;17.20;99.90;;;;;;5126883;27;20186;-38
2021/08/19 06:46:58;;;;;;;16.47;14.87;;;17.20;99.90;;;;;;5127267;27;20190;-38
2021/08/19 06:49:24;;;;;;;18.60;14.53;;;17.20;99.90;;;;;;5126043;27;20207;-37
2021/08/19 06:51:49;;;;;;;17.40;14.67;;;17.20;99.90;;;;;;5127098;27;20214;-38
2021/08/19 06:54:15;;;;;;;18.43;14.90;;;17.20;99.90;;;;;;5120536;27;20184;-40
2021/08/19 06:56:41;;;;;;;18.17;15.37;;;17.20;99.90;;;;;;5120348;27;20243;-38
2021/08/19 06:59:07;;;;;;;18.87;14.90;;;17.20;99.90;;;;;;5126220;27;20537;-37
2021/08/19 07:01:32;;;;;;;18.60;15.20;;;17.20;99.90;;;;;;5124681;27;20183;-39
2021/08/19 07:03:58;;;;;;;20.37;15.17;;;17.20;99.90;;;;;;5127253;27;20183;-38
2021/08/19 07:06:24;;;;;;;16.23;14.50;;;17.20;99.90;;;;;;5126710;27;20680;-38
2021/08/19 07:08:49;;;;;;;15.50;13.87;;;17.20;99.90;;;;;;5105281;28;20265;-38
2021/08/19 07:11:16;;;;;;;19.10;14.97;;;17.20;99.90;;;;;;5117775;27;20517;-38
2021/08/19 07:13:42;;;;;;;16.30;13.90;;;17.20;99.90;;;;;;5126694;27;20421;-38
2021/08/19 07:16:07;;;;;;;16.70;14.90;;;17.20;99.90;;;;;;5126713;28;20216;-39
2021/08/19 07:18:33;;;;;;;17.83;15.07;;;17.20;99.90;;;;;;5126535;28;20187;-38
2021/08/19 07:20:59;;;;;;;20.83;15.13;;;17.30;99.90;;;;;;5126136;28;20286;-38
2021/08/19 07:23:25;;;;;;;18.80;15.97;;;17.30;99.90;;;;;;5127175;28;20435;-39
2021/08/19 07:25:51;;;;;;;19.10;16.17;;;17.30;99.90;;;;;;5115718;28;20523;-37
2021/08/19 07:28:17;;;;;;;18.23;16.20;;;17.30;99.90;;;;;;5124230;28;20191;-38
2021/08/19 07:30:43;;;;;;;17.70;14.93;;;17.30;99.90;;;;;;5126003;28;20452;-40
2021/08/19 07:33:09;;;;;;;18.90;16.30;;;17.30;99.90;;;;;;5126546;28;20444;-38
2021/08/19 07:35:34;;;;;;;17.03;14.97;;;17.30;99.90;;;;;;5126649;28;20205;-39
2021/08/19 07:38:00;;;;;;;19.97;15.53;;;17.30;99.90;;;;;;5126404;28;20405;-39
2021/08/19 07:40:29;;;;;;;16.97;14.43;;;17.30;99.90;;;;;;5106905;28;20364;-38
2021/08/19 07:42:55;;;;;;;18.47;16.17;;;17.30;99.90;;;;;;5105643;28;20186;-38
2021/08/19 07:45:24;;;;;;;18.87;15.27;;;17.30;99.90;;;;;;5126186;28;20421;-38
2021/08/19 07:47:50;;;;;;;21.03;15.70;;;17.30;99.90;;;;;;5126181;28;20930;-38
2021/08/19 07:50:17;;;;;;;17.77;14.70;;;17.30;99.90;;;;;;5125784;28;20495;-39
2021/08/19 07:52:43;;;;;;;18.53;15.27;;;17.30;99.90;;;;;;5126628;28;20528;-39
2021/08/19 07:55:10;;;;;;;18.30;15.67;;;17.30;99.90;;;;;;5116313;28;20607;-38
2021/08/19 07:57:47;;;;;;;19.13;14.20;;;17.30;99.90;;;;;;5125791;28;20188;-38
2021/08/19 08:00:17;;;;;;;18.70;15.60;;;17.30;99.90;;;;;;5107509;28;20993;-40
2021/08/19 08:02:43;;;;;;;19.17;15.90;;;17.30;99.90;;;;;;5124695;28;20448;-39
2021/08/19 08:05:09;;;;;;;17.37;15.50;;;17.40;99.90;;;;;;5126105;28;20463;-40
2021/08/19 08:07:34;;;;;;;16.57;13.97;;;17.40;99.90;;;;;;5126044;28;20195;-38
2021/08/19 08:10:00;;;;;;;18.57;15.40;;;17.40;99.90;;;;;;5119098;28;20479;-39
2021/08/19 08:12:26;;;;;;;19.10;14.30;;;17.40;99.90;;;;;;5127029;27;20197;-39
2021/08/19 08:14:51;;;;;;;16.10;14.40;;;17.40;99.90;;;;;;5129984;27;20183;-39
2021/08/19 08:17:20;;;;;;;17.17;14.57;;;17.40;99.90;;;;;;5130240;27;20756;-39
2021/08/19 08:19:49;;;;;;;15.80;13.93;;;17.40;99.90;;;;;;5129090;27;20209;-38
2021/08/19 08:22:17;;;;;;;15.77;14.00;;;17.50;99.90;;;;;;5130041;27;20413;-40
2021/08/19 08:24:43;;;;;;;18.20;14.50;;;17.50;99.90;;;;;;5125438;27;20472;-39
2021/08/19 08:27:09;;;;;;;16.07;14.47;;;17.50;99.90;;;;;;5125074;27;20448;-38
2021/08/19 08:29:35;;;;;;;14.80;13.30;;;17.50;99.90;;;;;;5124199;27;20661;-40
2021/08/19 08:32:10;;;;;;;17.57;14.57;;;17.50;99.90;;;;;;5129603;27;20680;-38
2021/08/19 08:34:39;;;;;;;17.60;15.70;;;17.60;99.90;;;;;;5129591;27;20412;-38
2021/08/19 08:37:06;;;;;;;17.93;14.17;;;17.50;99.90;;;;;;5129750;27;20469;-38
2021/08/19 08:39:33;;;;;;;18.30;14.73;;;17.50;99.90;;;;;;5125562;27;20555;-39
2021/08/19 08:42:00;;;;;;;16.50;14.60;;;17.50;99.90;;;;;;5122635;27;20504;-38
2021/08/19 08:44:29;;;;;;;17.93;14.73;;;17.50;99.90;;;;;;5110680;27;21025;-38
2021/08/19 08:46:58;;;;;;;17.87;13.70;;;17.50;99.90;;;;;;5129133;27;20425;-41
2021/08/19 08:49:24;;;;;;;15.37;13.67;;;17.50;99.90;;;;;;5128500;27;20644;-38
2021/08/19 08:51:55;;;;;;;15.30;13.63;;;17.50;99.90;;;;;;5129418;27;20500;-38
2021/08/19 08:54:20;;;;;;;15.53;13.70;;;17.50;99.90;;;;;;5128563;27;20427;-38
2021/08/19 08:56:46;;;;;;;19.80;14.67;;;17.50;99.90;;;;;;5113090;27;20477;-38
2021/08/19 08:59:12;;;;;;;16.80;13.50;;;17.60;99.90;;;;;;5127613;27;20187;-38
2021/08/19 09:01:37;;;;;;;18.57;13.47;;;17.50;99.90;;;;;;5127207;27;20579;-39
2021/08/19 09:04:03;;;;;;;16.90;15.10;;;17.50;99.90;;;;;;5110908;27;20195;-38
2021/08/19 09:06:35;;;;;;;17.60;13.80;;;17.60;99.90;;;;;;5129006;27;20201;-38
2021/08/19 09:09:13;;;;;;;16.37;14.57;;;17.50;99.90;;;;;;5128431;27;20218;-39
2021/08/19 09:11:44;;;;;;;17.67;13.43;;;17.50;99.90;;;;;;5117392;27;20483;-39
2021/08/19 09:14:21;;;;;;;17.83;13.90;;;17.50;99.90;;;;;;5128581;27;20502;-38
2021/08/19 09:16:48;;;;;;;17.17;13.33;;;17.60;99.90;;;;;;5128606;27;20986;-41
2021/08/19 09:19:18;;;;;;;17.23;14.73;;;17.50;99.90;;;;;;5109928;27;20903;-41
2021/08/19 09:21:51;;;;;;;14.93;13.40;;;17.50;99.90;;;;;;5128813;27;20425;-39
2021/08/19 09:24:21;;;;;;;19.87;15.30;;;17.40;99.90;;;;;;5128861;27;20508;-42
2021/08/19 09:26:49;;;;;;;17.00;13.83;;;17.50;99.90;;;;;;5116151;27;20862;-41
2021/08/19 09:29:25;;;;;;;16.50;14.23;;;17.50;99.90;;;;;;5128056;27;20535;-43
2021/08/19 09:31:54;;;;;;;17.67;14.53;;;17.50;99.90;;;;;;5115823;27;20496;-38
2021/08/19 09:34:20;;;;;;;14.87;13.03;;;17.50;99.90;;;;;;5128422;27;20421;-39
2021/08/19 09:36:46;;;;;;;17.07;12.73;;;17.50;99.90;;;;;;5128350;27;20411;-40
2021/08/19 09:39:12;;;;;;;18.43;14.27;;;17.40;99.90;;;;;;5127544;27;20504;-38
2021/08/19 09:41:53;;;;;;;17.77;14.23;;;17.50;99.90;;;;;;5097917;27;20206;-38
2021/08/19 09:44:51;;;;;;;21.97;15.17;;;17.50;99.90;;;;;;5121592;27;20221;-38
2021/08/19 09:47:34;;;;;;;18.00;14.97;;;17.50;99.90;;;;;;5079633;27;20440;-39
2021/08/19 09:50:29;;;;;;;16.30;14.60;;;17.50;99.90;;;;;;5127787;27;20813;-38
2021/08/19 09:52:54;;;;;;;16.53;14.70;;;17.50;99.90;;;;;;5106359;27;20804;-38
2021/08/19 09:55:23;;;;;;;19.27;15.37;;;17.50;99.90;;;;;;5122943;27;20421;-38
2021/08/19 09:57:49;;;;;;;21.07;16.23;;;17.60;99.90;;;;;;5123668;27;20210;-38
2021/08/19 10:00:40;;;;;;;17.67;14.53;;;17.60;99.90;;;;;;5123772;27;20455;-38
2021/08/19 10:03:08;;;;;;;18.33;15.80;;;17.60;99.90;;;;;;5127997;27;20217;-39
2021/08/19 10:05:34;;;;;;;19.47;14.60;;;17.60;99.90;;;;;;5127966;27;20427;-40
2021/08/19 10:08:00;;;;;;;16.80;14.43;;;17.60;99.90;;;;;;5127849;27;20839;-38
2021/08/19 10:10:29;;;;;;;17.90;13.50;;;17.60;99.90;;;;;;5122476;27;20248;-39
2021/08/19 10:12:58;;;;;;;18.20;15.47;;;17.60;99.90;;;;;;5120643;27;20193;-38
2021/08/19 10:15:24;;;;;;;20.53;14.43;;;17.60;99.90;;;;;;5127592;27;20477;-39
2021/08/19 10:17:54;;;;;;;19.17;14.30;;;17.50;99.90;;;;;;5127648;27;20447;-38
2021/08/19 10:20:28;;;;;;;19.33;14.40;;;17.60;99.90;;;;;;5127534;27;20775;-40
2021/08/19 10:22:55;;;;;;;17.00;14.77;;;17.60;99.90;;;;;;5127340;27;20425;-38
2021/08/19 10:25:25;;;;;;;17.67;15.00;;;17.60;99.90;;;;;;5124056;27;20792;-38
2021/08/19 10:28:20;;;;;;;15.53;13.80;;;17.60;99.90;;;;;;5121774;27;20508;-42
2021/08/19 10:30:52;;;;;;;19.73;16.17;;;17.50;99.90;;;;;;5119759;27;21038;-40
2021/08/19 10:33:38;;;;;;;18.87;16.50;;;17.60;99.90;;;;;;5127713;27;20541;-41
2021/08/19 10:36:09;;;;;;;17.20;15.37;;;17.60;99.90;;;;;;5126854;27;20686;-39
2021/08/19 10:38:36;;;;;;;20.63;18.00;;;17.60;99.90;;;;;;5127311;27;20420;-39
2021/08/19 10:41:01;;;;;;;16.97;15.10;;;17.60;99.90;;;;;;5122070;27;20877;-38
2021/08/19 10:43:30;;;;;;;20.47;16.50;;;17.60;99.90;;;;;;5125704;27;20500;-38
2021/08/19 10:46:10;;;;;;;20.27;15.87;;;17.70;99.90;;;;;;5122794;27;20187;-39
2021/08/19 10:49:02;;;;;;;18.67;15.80;;;17.70;99.90;;;;;;5127021;27;20424;-41
2021/08/19 10:51:29;;;;;;;17.50;14.20;;;17.80;99.90;;;;;;5122296;27;20441;-39
2021/08/19 10:53:55;;;;;;;19.60;14.13;;;17.80;99.90;;;;;;5127508;27;20473;-39
2021/08/19 10:56:44;;;;;;;16.70;14.43;;;17.90;99.90;;;;;;5118246;27;20520;-42
2021/08/19 10:59:37;;;;;;;16.87;14.50;;;18.00;99.90;;;;;;5120253;27;20418;-38
2021/08/19 11:02:03;;;;;;;18.60;13.30;;;18.10;99.90;;;;;;5119102;27;20725;-38
2021/08/19 11:04:43;;;;;;;14.93;13.43;;;18.10;99.90;;;;;;5126879;27;20484;-39
2021/08/19 11:07:10;;;;;;;15.50;12.40;;;18.10;99.90;;;;;;5126998;27;20191;-39
2021/08/19 11:09:36;;;;;;;14.67;12.67;;;18.10;99.90;;;;;;5126200;27;20460;-40
2021/08/19 11:12:06;;;;;;;13.47;11.60;;;18.10;99.90;;;;;;5112743;27;20440;-40
2021/08/19 11:14:32;;;;;;;12.70;11.50;;;18.10;99.90;;;;;;5126722;27;20845;-40
2021/08/19 11:17:02;;;;;;;12.60;10.97;;;18.20;99.90;;;;;;5106694;28;20414;-38
2021/08/19 11:19:29;;;;;;;12.90;11.60;;;18.20;99.90;;;;;;5093363;28;20444;-42
2021/08/19 11:21:57;;;;;;;14.00;12.53;;;18.20;99.90;;;;;;5112965;28;20944;-39
2021/08/19 11:24:25;;;;;;;12.53;11.23;;;18.20;99.90;;;;;;5127040;28;21044;-38
2021/08/19 11:27:03;;;;;;;12.50;10.87;;;18.30;99.90;;;;;;5117732;28;20787;-41
2021/08/19 11:29:32;;;;;;;15.00;12.27;;;18.30;99.90;;;;;;5123638;28;20493;-40
2021/08/19 11:32:03;;;;;;;12.97;10.93;;;18.30;99.90;;;;;;5126988;28;20404;-39
2021/08/19 11:34:28;;;;;;;11.83;10.63;;;18.40;99.90;;;;;;5126643;28;20508;-38
2021/08/19 11:36:54;;;;;;;11.57;10.47;;;18.50;99.90;;;;;;5126491;28;20515;-38
2021/08/19 11:39:27;;;;;;;11.83;10.67;;;18.50;99.90;;;;;;5125634;28;20194;-38
2021/08/19 11:42:02;;;;;;;11.00;9.90;;;18.60;99.90;;;;;;5117303;28;20555;-41
2021/08/19 11:44:28;;;;;;;11.87;10.67;;;18.70;99.90;;;;;;5124575;28;20534;-41
2021/08/19 11:47:07;;;;;;;12.50;10.40;;;18.70;99.90;;;;;;5128880;27;20511;-40
2021/08/19 11:49:33;;;;;;;10.30;9.00;;;18.70;99.90;;;;;;5129957;27;20564;-42
2021/08/19 11:52:05;;;;;;;13.20;7.93;;;18.70;99.90;;;;;;5130312;27;20413;-40
2021/08/19 11:54:45;;;;;;;8.40;7.10;;;18.70;99.90;;;;;;5130733;27;20175;-39
2021/08/19 11:57:24;;;;;;;8.43;7.57;;;18.70;99.90;;;;;;5103988;27;20541;-38
2021/08/19 12:00:00;;;;;;;7.83;7.03;;;18.70;99.90;;;;;;5108634;27;20420;-39
2021/08/19 12:02:26;;;;;;;7.23;6.50;;;18.70;99.90;;;;;;5127549;27;20461;-40
2021/08/19 12:05:06;;;;;;;7.37;6.67;;;18.70;99.90;;;;;;5129985;27;20464;-39
2021/08/19 12:07:33;;;;;;;7.07;6.13;;;18.80;99.90;;;;;;5117106;27;20944;-40
2021/08/19 12:10:00;;;;;;;6.93;5.50;;;18.80;99.90;;;;;;5128472;27;20936;-39
2021/08/19 12:12:27;;;;;;;7.03;6.10;;;18.80;99.90;;;;;;5113991;27;20436;-39
2021/08/19 12:14:54;;;;;;;6.90;5.13;;;18.80;99.90;;;;;;5128570;27;20416;-39
2021/08/19 12:17:20;;;;;;;5.87;5.33;;;18.80;99.90;;;;;;5129086;27;20500;-43
2021/08/19 12:19:46;;;;;;;6.13;5.10;;;18.80;99.90;;;;;;5129196;27;21096;-38
2021/08/19 12:22:11;;;;;;;7.33;5.27;;;18.80;99.90;;;;;;5130333;27;20420;-39
2021/08/19 12:24:42;;;;;;;4.70;4.30;;;18.80;99.90;;;;;;5129820;27;20414;-39
2021/08/19 12:27:10;;;;;;;6.53;4.90;;;18.80;99.90;;;;;;5118548;27;20184;-39
2021/08/19 12:29:57;;;;;;;5.57;5.07;;;18.80;99.90;;;;;;5125454;27;20449;-38
2021/08/19 12:32:36;;;;;;;5.30;4.80;;;18.90;99.90;;;;;;5128812;27;20691;-39
2021/08/19 12:35:13;;;;;;;5.80;5.20;;;18.90;99.90;;;;;;5129549;27;20416;-40
2021/08/19 12:37:56;;;;;;;5.67;5.00;;;19.00;99.90;;;;;;5129773;27;20652;-39
2021/08/19 12:40:35;;;;;;;4.90;4.40;;;19.00;99.90;;;;;;5110148;27;20481;-39
2021/08/19 12:43:09;;;;;;;4.90;4.40;;;19.00;99.90;;;;;;5117755;27;20439;-41
2021/08/19 12:45:35;;;;;;;5.57;5.07;;;19.00;99.90;;;;;;5129221;27;20993;-39
2021/08/19 12:48:09;;;;;;;4.53;3.80;;;19.00;99.90;;;;;;5129277;27;20535;-39
2021/08/19 12:50:37;;;;;;;4.63;4.23;;;19.00;99.90;;;;;;5110995;27;20456;-39
2021/08/19 12:53:09;;;;;;;4.70;4.30;;;19.00;99.90;;;;;;5129035;27;20459;-38
2021/08/19 12:55:36;;;;;;;7.43;4.60;;;19.00;99.90;;;;;;5129588;27;20429;-40
2021/08/19 12:58:02;;;;;;;4.77;4.27;;;19.00;99.90;;;;;;5122466;27;20429;-41
2021/08/19 13:00:33;;;;;;;4.83;4.40;;;18.90;99.90;;;;;;5126634;27;20420;-42
2021/08/19 13:03:01;;;;;;;5.67;5.20;;;18.90;99.90;;;;;;5110652;27;20413;-39
2021/08/19 13:05:28;;;;;;;6.20;4.57;;;18.90;99.90;;;;;;5128651;27;20982;-38
2021/08/19 13:07:56;;;;;;;4.87;4.47;;;19.00;99.90;;;;;;5129069;27;20805;-40
2021/08/19 13:10:24;;;;;;;7.30;4.80;;;19.00;99.90;;;;;;5124091;27;20864;-39
2021/08/19 13:12:50;;;;;;;4.73;4.20;;;19.00;99.90;;;;;;5108466;27;20428;-39
2021/08/19 13:15:16;;;;;;;5.77;4.53;;;19.10;99.90;;;;;;5107479;27;20417;-38
2021/08/19 13:17:44;;;;;;;4.93;4.50;;;19.10;99.90;;;;;;5128834;27;20536;-39
2021/08/19 13:20:13;;;;;;;5.10;4.60;;;19.10;99.90;;;;;;5109259;27;20492;-39
2021/08/19 13:22:39;;;;;;;6.10;4.37;;;19.10;99.90;;;;;;5128882;27;20865;-38
2021/08/19 13:25:06;;;;;;;5.10;4.50;;;19.10;99.90;;;;;;5129149;27;20788;-38
2021/08/19 13:27:31;;;;;;;5.33;4.83;;;19.10;99.90;;;;;;5119356;27;21007;-39
2021/08/19 13:29:57;;;;;;;5.70;4.93;;;19.10;99.90;;;;;;5125682;27;20562;-39
2021/08/19 13:32:24;;;;;;;6.97;5.37;;;19.10;99.90;;;;;;5128355;27;20270;-38
2021/08/19 13:34:50;;;;;;;5.77;5.27;;;19.20;99.90;;;;;;5128618;27;20424;-38
2021/08/19 13:37:16;;;;;;;9.67;4.90;;;19.20;99.90;;;;;;5128216;27;20460;-38
2021/08/19 13:39:43;;;;;;;5.63;4.97;;;19.10;99.90;;;;;;5128083;27;20416;-39
2021/08/19 13:42:10;;;;;;;5.43;4.93;;;19.10;99.90;;;;;;5121460;27;20188;-40
2021/08/19 13:44:36;;;;;;;10.80;4.90;;;19.10;99.90;;;;;;5120752;27;20485;-38
2021/08/19 13:47:02;;;;;;;5.87;5.00;;;19.10;99.90;;;;;;5126110;27;20417;-38
2021/08/19 13:49:29;;;;;;;5.27;4.00;;;19.10;99.90;;;;;;5127317;27;20471;-40
2021/08/19 13:51:55;;;;;;;4.20;3.60;;;19.10;99.90;;;;;;5128299;27;20513;-38
2021/08/19 13:54:21;;;;;;;3.90;3.60;;;19.10;99.90;;;;;;5128225;27;20564;-38
2021/08/19 13:56:48;;;;;;;4.50;4.10;;;19.10;99.90;;;;;;5125584;27;20417;-38
2021/08/19 13:59:17;;;;;;;6.97;4.40;;;19.10;99.90;;;;;;5118593;27;20187;-39
2021/08/19 14:01:44;;;;;;;4.10;3.70;;;19.10;99.90;;;;;;5126045;27;20846;-39
2021/08/19 14:04:09;;;;;;;5.03;4.50;;;19.10;99.90;;;;;;5127776;27;20429;-38
2021/08/19 14:06:35;;;;;;;3.97;3.50;;;19.10;99.90;;;;;;5128296;27;20992;-43
2021/08/19 14:09:01;;;;;;;4.07;3.67;;;19.10;99.90;;;;;;5126563;27;20290;-40
2021/08/19 14:11:26;;;;;;;4.50;3.93;;;19.10;99.90;;;;;;5114119;27;20183;-39
2021/08/19 14:13:53;;;;;;;4.50;4.00;;;19.10;99.90;;;;;;5116121;27;20190;-39
2021/08/19 14:16:19;;;;;;;4.40;4.00;;;19.20;99.90;;;;;;5127089;27;20237;-39
2021/08/19 14:18:45;;;;;;;5.10;4.60;;;19.20;99.90;;;;;;5127188;27;20500;-38
2021/08/19 14:21:11;;;;;;;5.50;4.20;;;19.20;99.90;;;;;;5127488;27;20734;-39
2021/08/19 14:23:38;;;;;;;4.67;4.27;;;19.20;99.90;;;;;;5127735;27;20218;-38
2021/08/19 14:26:05;;;;;;;6.77;4.77;;;19.20;99.90;;;;;;5127634;27;20507;-38
2021/08/19 14:28:35;;;;;;;5.60;5.10;;;19.10;99.90;;;;;;5114442;27;20433;-40
2021/08/19 14:31:01;;;;;;;5.97;4.93;;;19.10;99.90;;;;;;5126889;27;20470;-39
2021/08/19 14:33:28;;;;;;;4.97;4.00;;;19.10;99.90;;;;;;5127070;27;20408;-41
2021/08/19 14:35:53;;;;;;;4.17;3.77;;;19.00;99.90;;;;;;5127271;27;20435;-39
2021/08/19 14:38:20;;;;;;;5.10;4.40;;;19.00;99.90;;;;;;5127041;27;20792;-39
2021/08/19 14:40:46;;;;;;;4.13;3.73;;;19.10;99.90;;;;;;5126894;27;20289;-40